Time;durP1;ratioP1;P1;durP2;ratioP2;P2;SDS_P1;SDS_P2;PMS_P1;PMS_P2;Temp;Humidity;BMP_temperature;BMP_pressure;BME280_temperature;BME280_humidity;BME280_pressure;Samples;Min_cycle;Max_cycle;Signal;HPM_P1;HPM_P2
2021/05/25 00:00:14;;;;;;;1.48;0.10;;;9.30;99.90;;;;;;5052631;28;20508;-74
2021/05/25 00:02:41;;;;;;;2.22;0.10;;;9.30;99.90;;;;;;5053796;28;20108;-75
2021/05/25 00:05:07;;;;;;;0.20;0.10;;;9.20;99.90;;;;;;5053871;28;20367;-74
2021/05/25 00:07:33;;;;;;;1.48;0.10;;;9.20;99.90;;;;;;5054102;28;20389;-74
2021/05/25 00:09:59;;;;;;;0.28;0.08;;;9.10;99.90;;;;;;5053935;28;20028;-74
2021/05/25 00:12:24;;;;;;;2.40;0.45;;;9.00;99.90;;;;;;5054249;28;20458;-75
2021/05/25 00:14:50;;;;;;;0.80;0.10;;;9.00;99.90;;;;;;5054291;28;20021;-74
2021/05/25 00:17:15;;;;;;;0.68;0.00;;;9.00;99.90;;;;;;5054506;28;20017;-76
2021/05/25 00:19:44;;;;;;;2.67;0.63;;;8.80;99.90;;;;;;5052958;28;20024;-74
2021/05/25 00:22:12;;;;;;;1.38;0.00;;;8.90;99.90;;;;;;5053078;28;20391;-74
2021/05/25 00:24:37;;;;;;;0.30;0.00;;;8.80;99.90;;;;;;5053011;28;20021;-74
2021/05/25 00:27:03;;;;;;;0.30;0.00;;;8.70;99.90;;;;;;5055670;28;20036;-73
2021/05/25 00:29:29;;;;;;;2.63;0.17;;;8.70;99.90;;;;;;5054186;28;20060;-74
2021/05/25 00:31:55;;;;;;;0.00;0.00;;;8.70;99.90;;;;;;5052969;28;20025;-74
2021/05/25 00:34:20;;;;;;;0.57;0.00;;;8.60;99.90;;;;;;5054693;28;20025;-75
2021/05/25 00:36:46;;;;;;;0.05;0.05;;;8.60;99.90;;;;;;5055051;28;20497;-74
2021/05/25 00:39:12;;;;;;;0.00;0.00;;;8.50;99.90;;;;;;5054006;28;20025;-74
2021/05/25 00:41:37;;;;;;;0.00;0.00;;;8.50;99.90;;;;;;5054317;28;20029;-73
2021/05/25 00:44:06;;;;;;;0.30;0.20;;;8.50;99.90;;;;;;5054100;28;20039;-75
2021/05/25 00:46:32;;;;;;;2.08;0.00;;;8.40;99.90;;;;;;5054122;28;20020;-74
2021/05/25 00:48:58;;;;;;;0.00;0.00;;;8.40;99.90;;;;;;5053796;28;20033;-75
2021/05/25 00:51:23;;;;;;;0.20;0.00;;;8.40;99.90;;;;;;5054267;28;20029;-75
2021/05/25 00:53:49;;;;;;;0.00;0.00;;;8.40;99.90;;;;;;5053238;28;20013;-74
2021/05/25 00:56:15;;;;;;;0.17;0.00;;;8.50;99.90;;;;;;5054044;28;20032;-75
2021/05/25 00:58:40;;;;;;;0.20;0.00;;;8.40;99.90;;;;;;5053920;28;20028;-72
2021/05/25 01:01:06;;;;;;;0.55;0.10;;;8.40;99.90;;;;;;5053401;28;20390;-74
2021/05/25 01:03:32;;;;;;;0.40;0.00;;;8.50;99.90;;;;;;5053521;28;20032;-74
2021/05/25 01:05:57;;;;;;;1.15;0.00;;;8.50;99.90;;;;;;5056744;28;20039;-74
2021/05/25 01:08:23;;;;;;;0.00;0.00;;;8.60;99.90;;;;;;5058175;28;20086;-74
2021/05/25 01:10:51;;;;;;;0.08;0.00;;;8.50;99.90;;;;;;5057357;28;20052;-76
2021/05/25 01:13:22;;;;;;;1.65;0.10;;;8.50;99.90;;;;;;5056660;28;20051;-75
2021/05/25 01:15:49;;;;;;;0.10;0.00;;;8.60;99.90;;;;;;5057962;28;20021;-74
2021/05/25 01:18:16;;;;;;;0.57;0.00;;;8.60;99.90;;;;;;5056192;28;20021;-74
2021/05/25 01:20:45;;;;;;;0.38;0.00;;;8.50;99.90;;;;;;5056221;28;20481;-74
2021/05/25 01:23:11;;;;;;;2.83;0.00;;;8.50;99.90;;;;;;5072935;22;20068;-74
2021/05/25 01:25:39;;;;;;;1.50;0.10;;;8.50;99.90;;;;;;5077703;28;20024;-75
2021/05/25 01:28:08;;;;;;;1.95;0.32;;;8.50;99.90;;;;;;5077156;28;20023;-73
2021/05/25 01:30:37;;;;;;;0.40;0.10;;;8.50;99.90;;;;;;5077877;28;20484;-75
2021/05/25 01:33:04;;;;;;;0.52;0.00;;;8.50;99.90;;;;;;5077728;28;20070;-75
2021/05/25 01:35:30;;;;;;;2.47;0.00;;;8.40;99.90;;;;;;5077101;28;20481;-74
2021/05/25 01:37:57;;;;;;;0.30;0.00;;;8.40;99.90;;;;;;5076935;28;20099;-75
2021/05/25 01:40:24;;;;;;;0.88;0.00;;;8.40;99.90;;;;;;5077553;28;20099;-75
2021/05/25 01:42:50;;;;;;;0.75;0.10;;;8.40;99.90;;;;;;5077245;28;20103;-73
2021/05/25 01:45:22;;;;;;;2.17;0.20;;;8.30;99.90;;;;;;5076705;28;20063;-73
2021/05/25 01:47:47;;;;;;;2.40;0.20;;;8.30;99.90;;;;;;5076772;28;20456;-75
2021/05/25 01:50:15;;;;;;;1.45;0.08;;;8.30;99.90;;;;;;5076563;28;20067;-75
2021/05/25 01:52:47;;;;;;;2.57;0.10;;;8.30;99.90;;;;;;5076437;28;20017;-74
2021/05/25 01:55:22;;;;;;;1.35;0.38;;;8.30;99.90;;;;;;5058380;28;20016;-73
2021/05/25 01:57:47;;;;;;;0.68;0.38;;;8.20;99.90;;;;;;5076728;28;20063;-74
2021/05/25 02:00:13;;;;;;;0.50;0.10;;;8.20;99.90;;;;;;5076458;28;20024;-74
2021/05/25 02:02:39;;;;;;;3.97;0.50;;;8.20;99.90;;;;;;5076003;28;20103;-74
2021/05/25 02:05:05;;;;;;;1.08;0.30;;;8.20;99.90;;;;;;5058972;28;20063;-74
2021/05/25 02:07:31;;;;;;;0.98;0.40;;;8.20;99.90;;;;;;5076457;28;20029;-73
2021/05/25 02:09:57;;;;;;;1.92;0.70;;;8.10;99.90;;;;;;5059011;28;20051;-74
2021/05/25 02:12:22;;;;;;;0.95;0.52;;;8.10;99.90;;;;;;5076720;28;20048;-74
2021/05/25 02:14:48;;;;;;;1.55;0.98;;;8.00;99.90;;;;;;5076475;28;20028;-74
2021/05/25 02:17:13;;;;;;;2.97;1.27;;;8.00;99.90;;;;;;5057304;28;20028;-74
2021/05/25 02:19:39;;;;;;;1.85;0.80;;;8.00;99.90;;;;;;5058475;28;20024;-74
2021/05/25 02:22:04;;;;;;;3.83;0.85;;;8.00;99.90;;;;;;5076584;28;20039;-73
2021/05/25 02:24:30;;;;;;;3.67;0.88;;;7.90;99.90;;;;;;5076611;28;20032;-74
2021/05/25 02:26:55;;;;;;;1.35;0.82;;;7.90;99.90;;;;;;5077581;28;20028;-72
2021/05/25 02:29:21;;;;;;;3.10;1.08;;;7.90;99.90;;;;;;5076446;28;20020;-75
2021/05/25 02:31:47;;;;;;;2.45;0.90;;;7.90;99.90;;;;;;5077002;28;20020;-75
2021/05/25 02:34:12;;;;;;;4.20;1.17;;;7.80;99.90;;;;;;5076795;28;20096;-74
2021/05/25 02:36:38;;;;;;;3.13;1.52;;;7.80;99.90;;;;;;5076222;28;20496;-75
2021/05/25 02:39:05;;;;;;;3.70;1.13;;;7.70;99.90;;;;;;5058628;28;20017;-75
2021/05/25 02:41:31;;;;;;;4.93;1.73;;;7.70;99.90;;;;;;5057973;28;20027;-74
2021/05/25 02:43:56;;;;;;;4.75;1.48;;;7.70;99.90;;;;;;5076545;28;20021;-75
2021/05/25 02:46:22;;;;;;;3.75;1.60;;;7.70;99.90;;;;;;5076648;28;20027;-74
2021/05/25 02:48:47;;;;;;;4.20;1.70;;;7.60;99.90;;;;;;5076228;28;20050;-74
2021/05/25 02:51:13;;;;;;;10.20;1.80;;;7.50;99.90;;;;;;5076525;28;20457;-73
2021/05/25 02:53:39;;;;;;;3.08;1.27;;;7.50;99.90;;;;;;5058044;28;20052;-74
2021/05/25 02:56:04;;;;;;;6.38;2.22;;;7.50;99.90;;;;;;5058432;28;20024;-74
2021/05/25 02:58:30;;;;;;;5.65;1.88;;;7.50;99.90;;;;;;5075960;28;20355;-72
2021/05/25 03:00:55;;;;;;;8.32;2.17;;;7.40;99.90;;;;;;5058361;28;20020;-75
2021/05/25 03:03:21;;;;;;;3.10;1.70;;;7.50;99.90;;;;;;5075733;28;20366;-74
2021/05/25 03:05:47;;;;;;;5.13;1.75;;;7.40;99.90;;;;;;5076082;28;20024;-75
2021/05/25 03:08:14;;;;;;;2.80;1.90;;;7.50;99.90;;;;;;5058617;28;20123;-74
2021/05/25 03:10:42;;;;;;;3.83;1.33;;;7.50;99.90;;;;;;5075431;28;20362;-74
2021/05/25 03:13:09;;;;;;;3.10;1.40;;;7.40;99.90;;;;;;5081120;23;20067;-74
2021/05/25 03:15:41;;;;;;;6.53;2.13;;;7.30;99.90;;;;;;5070552;28;20432;-74
2021/05/25 03:18:08;;;;;;;5.05;2.20;;;7.30;99.90;;;;;;5075918;28;20473;-74
2021/05/25 03:20:34;;;;;;;4.05;1.92;;;7.30;99.90;;;;;;5076566;28;20028;-75
2021/05/25 03:23:02;;;;;;;7.50;2.00;;;7.30;99.90;;;;;;5058486;28;20066;-75
2021/05/25 03:25:28;;;;;;;6.78;2.42;;;7.30;99.90;;;;;;5076195;28;20031;-74
2021/05/25 03:27:54;;;;;;;4.47;2.05;;;7.30;99.90;;;;;;5075637;28;20496;-73
2021/05/25 03:30:25;;;;;;;3.42;1.80;;;7.30;99.90;;;;;;5076156;28;20494;-75
2021/05/25 03:32:51;;;;;;;3.38;2.08;;;7.30;99.90;;;;;;5076062;28;20020;-75
2021/05/25 03:35:19;;;;;;;3.80;1.70;;;7.30;99.90;;;;;;5058252;28;20040;-75
2021/05/25 03:37:45;;;;;;;4.05;1.95;;;7.20;99.90;;;;;;5076146;28;20059;-73
2021/05/25 03:40:13;;;;;;;6.65;1.98;;;7.20;99.90;;;;;;5057807;28;20028;-74
2021/05/25 03:42:38;;;;;;;3.08;1.85;;;7.20;99.90;;;;;;5076127;28;20088;-73
2021/05/25 03:45:05;;;;;;;5.00;1.95;;;7.10;99.90;;;;;;5079404;28;20044;-75
2021/05/25 03:47:31;;;;;;;3.72;2.13;;;7.20;99.90;;;;;;5058009;28;20024;-75
2021/05/25 03:50:06;;;;;;;6.75;2.00;;;7.10;99.90;;;;;;5076213;28;20016;-75
2021/05/25 03:52:40;;;;;;;4.13;2.38;;;7.10;99.90;;;;;;5057849;28;20497;-75
2021/05/25 03:55:19;;;;;;;8.00;1.73;;;7.10;99.90;;;;;;5058406;28;20048;-74
2021/05/25 04:00:22;;;;;;;4.68;1.92;;;7.00;99.90;;;;;;5034510;28;20057;-76
2021/05/25 04:02:48;;;;;;;3.58;2.15;;;7.00;99.90;;;;;;5035811;28;20029;-75
2021/05/25 04:05:14;;;;;;;4.05;1.90;;;7.00;99.90;;;;;;5035779;28;20398;-75
2021/05/25 04:07:39;;;;;;;3.05;1.60;;;7.00;99.90;;;;;;5035577;28;20108;-74
2021/05/25 04:10:05;;;;;;;5.32;1.65;;;7.00;99.90;;;;;;5036575;28;20022;-74
2021/05/25 04:12:31;;;;;;;3.35;2.15;;;7.00;99.90;;;;;;5058178;22;20041;-74
2021/05/25 04:14:56;;;;;;;4.43;1.95;;;8.80;99.90;;;;;;5037644;28;20490;-74
2021/05/25 04:17:22;;;;;;;5.20;1.42;;;7.00;99.90;;;;;;5043405;28;20025;-74
2021/05/25 04:19:47;;;;;;;3.60;2.08;;;7.10;99.90;;;;;;5046753;28;20017;-75
2021/05/25 04:22:13;;;;;;;5.32;1.80;;;7.10;99.90;;;;;;5043575;28;20117;-74
2021/05/25 04:24:38;;;;;;;4.43;1.77;;;7.10;99.90;;;;;;5017393;28;20092;-74
2021/05/25 04:27:04;;;;;;;5.55;1.73;;;7.10;99.90;;;;;;5049451;28;20493;-74
2021/05/25 04:29:30;;;;;;;5.20;1.92;;;7.20;99.90;;;;;;5029569;28;20035;-74
2021/05/25 04:31:55;;;;;;;4.70;1.85;;;7.20;99.90;;;;;;5030381;28;20544;-73
2021/05/25 04:34:21;;;;;;;4.47;2.25;;;7.30;99.90;;;;;;5042597;28;20028;-73
2021/05/25 04:36:46;;;;;;;7.10;1.83;;;7.30;99.90;;;;;;5046971;28;20541;-75
2021/05/25 04:39:12;;;;;;;5.13;1.70;;;7.40;99.90;;;;;;5049878;23;20131;-75
2021/05/25 04:41:37;;;;;;;5.53;2.17;;;7.40;99.90;;;;;;5059412;28;20060;-75
2021/05/25 04:44:03;;;;;;;5.97;2.00;;;7.50;99.90;;;;;;5060135;28;20563;-75
2021/05/25 04:46:29;;;;;;;5.60;2.08;;;7.50;99.90;;;;;;5041640;28;20035;-74
2021/05/25 04:48:55;;;;;;;5.75;2.28;;;7.60;99.90;;;;;;5057658;28;20029;-75
2021/05/25 04:51:20;;;;;;;4.70;2.05;;;7.50;99.90;;;;;;5041049;28;20025;-74
2021/05/25 04:53:46;;;;;;;5.15;2.35;;;7.60;99.90;;;;;;5041177;28;20163;-73
2021/05/25 04:56:11;;;;;;;4.85;2.22;;;7.60;99.90;;;;;;5071219;28;21362;-74
2021/05/25 04:58:37;;;;;;;5.82;2.50;;;7.70;99.90;;;;;;5052013;28;20028;-73
2021/05/25 05:01:02;;;;;;;4.57;2.45;;;7.70;99.90;;;;;;5040390;28;20461;-73
2021/05/25 05:03:28;;;;;;;4.68;2.08;;;7.80;99.90;;;;;;5056745;28;20049;-74
2021/05/25 05:05:54;;;;;;;3.75;2.10;;;7.90;99.90;;;;;;5046398;28;20029;-73
2021/05/25 05:08:20;;;;;;;6.88;2.50;;;7.90;99.90;;;;;;5042951;28;20020;-74
2021/05/25 05:10:46;;;;;;;6.07;2.70;;;8.00;99.90;;;;;;5058279;28;20466;-74
2021/05/25 05:13:11;;;;;;;4.25;1.95;;;8.10;99.90;;;;;;5054954;28;20029;-74
2021/05/25 05:15:37;;;;;;;5.07;2.20;;;8.20;99.90;;;;;;5020975;28;20059;-74
2021/05/25 05:18:03;;;;;;;4.85;1.67;;;8.30;99.90;;;;;;5067328;28;20096;-74
2021/05/25 05:20:28;;;;;;;6.18;2.45;;;8.40;99.90;;;;;;5028377;28;20021;-75
2021/05/25 05:22:54;;;;;;;7.05;2.63;;;8.50;99.90;;;;;;5057880;28;20106;-74
2021/05/25 05:25:20;;;;;;;5.20;2.40;;;8.60;99.90;;;;;;5057604;28;20035;-75
2021/05/25 05:27:46;;;;;;;4.18;2.42;;;8.60;99.90;;;;;;5056268;28;20099;-75
2021/05/25 05:30:12;;;;;;;3.65;2.25;;;8.70;99.90;;;;;;5057906;28;20441;-74
2021/05/25 05:32:38;;;;;;;6.20;2.60;;;8.70;99.90;;;;;;5050742;28;20043;-74
2021/05/25 05:35:05;;;;;;;6.68;2.60;;;8.80;99.90;;;;;;5038652;28;20049;-74
2021/05/25 05:37:31;;;;;;;6.60;3.08;;;8.90;99.90;;;;;;5063269;28;20029;-74
2021/05/25 05:39:57;;;;;;;4.70;2.42;;;9.00;99.90;;;;;;5044952;28;20025;-74
2021/05/25 05:42:23;;;;;;;3.70;2.33;;;9.10;99.90;;;;;;5042621;28;20040;-75
2021/05/25 05:44:48;;;;;;;4.50;2.30;;;9.30;99.90;;;;;;5039006;28;20153;-76
2021/05/25 05:47:19;;;;;;;4.13;2.08;;;9.40;99.90;;;;;;5068860;28;20055;-75
2021/05/25 05:49:50;;;;;;;5.90;2.50;;;9.40;99.90;;;;;;5068985;28;20033;-77
2021/05/25 05:52:15;;;;;;;5.88;2.90;;;9.50;99.90;;;;;;5038752;28;20167;-74
2021/05/25 05:54:41;;;;;;;4.63;2.58;;;9.50;99.90;;;;;;5038504;28;20052;-73
2021/05/25 05:57:06;;;;;;;4.82;2.17;;;9.60;99.90;;;;;;5038523;28;20032;-77
2021/05/25 05:59:33;;;;;;;4.60;2.08;;;9.60;99.90;;;;;;5056303;28;20029;-77
2021/05/25 06:01:58;;;;;;;5.13;2.28;;;9.60;99.90;;;;;;5056975;28;20036;-75
2021/05/25 06:04:24;;;;;;;3.30;1.70;;;9.80;99.90;;;;;;5051573;28;20028;-76
2021/05/25 06:06:49;;;;;;;7.90;2.08;;;9.90;99.90;;;;;;5076133;28;20415;-74
2021/05/25 06:09:15;;;;;;;3.95;2.35;;;9.90;99.90;;;;;;5076527;28;20024;-74
2021/05/25 06:11:41;;;;;;;6.38;2.60;;;9.90;99.90;;;;;;5075723;28;20056;-75
2021/05/25 06:14:06;;;;;;;3.35;2.10;;;10.00;99.90;;;;;;5058094;28;20032;-74
2021/05/25 06:16:33;;;;;;;5.32;2.47;;;10.10;99.90;;;;;;5076174;28;20020;-76
2021/05/25 06:18:59;;;;;;;4.18;1.65;;;10.30;99.90;;;;;;5077538;28;20444;-76
2021/05/25 06:21:25;;;;;;;3.72;2.95;;;10.30;99.90;;;;;;5046193;28;20059;-75
2021/05/25 06:23:51;;;;;;;4.57;2.63;;;10.30;99.90;;;;;;5044945;28;20424;-75
2021/05/25 06:26:19;;;;;;;6.03;2.63;;;10.40;99.90;;;;;;5075951;28;20035;-75
2021/05/25 06:28:45;;;;;;;9.77;3.63;;;10.60;99.90;;;;;;5058445;28;20418;-74
2021/05/25 06:31:11;;;;;;;6.55;2.05;;;10.70;99.90;;;;;;5041458;28;20037;-78
2021/05/25 06:33:36;;;;;;;3.25;2.22;;;10.60;99.90;;;;;;5037670;28;20013;-74
2021/05/25 06:36:04;;;;;;;5.25;2.50;;;10.70;99.90;;;;;;5055494;28;20129;-76
2021/05/25 06:38:30;;;;;;;4.38;2.80;;;10.70;99.90;;;;;;5055857;28;20033;-74
2021/05/25 06:40:56;;;;;;;5.70;2.58;;;10.70;99.90;;;;;;5057136;28;20039;-78
2021/05/25 06:43:21;;;;;;;4.90;2.97;;;10.60;99.90;;;;;;5041331;28;20033;-79
2021/05/25 06:45:47;;;;;;;4.85;3.10;;;10.60;99.90;;;;;;5059509;28;20028;-79
2021/05/25 06:48:12;;;;;;;6.00;3.00;;;10.50;99.90;;;;;;5043968;28;20029;-79
2021/05/25 06:50:38;;;;;;;4.30;2.50;;;10.50;99.90;;;;;;5056857;28;20025;-77
2021/05/25 06:53:04;;;;;;;6.43;2.97;;;10.50;99.90;;;;;;5057183;28;20028;-78
2021/05/25 06:55:31;;;;;;;7.00;3.40;;;10.40;99.90;;;;;;5039694;28;20017;-77
2021/05/25 06:57:57;;;;;;;7.10;2.38;;;10.40;99.90;;;;;;5055602;28;20025;-76
2021/05/25 07:00:23;;;;;;;5.63;2.50;;;10.50;99.90;;;;;;5037653;28;20059;-76
2021/05/25 07:02:48;;;;;;;6.43;2.72;;;10.60;99.90;;;;;;5054583;28;20024;-76
2021/05/25 07:05:14;;;;;;;3.72;2.08;;;10.70;99.90;;;;;;5037188;28;20135;-75
2021/05/25 07:07:39;;;;;;;3.72;1.95;;;10.90;99.90;;;;;;5055144;28;20032;-73
2021/05/25 07:10:06;;;;;;;4.30;1.52;;;11.00;99.90;;;;;;5054858;28;20111;-74
2021/05/25 07:12:32;;;;;;;2.03;1.27;;;11.20;99.90;;;;;;5055026;28;20052;-74
2021/05/25 07:14:57;;;;;;;0.95;0.82;;;11.20;99.90;;;;;;5054463;28;20079;-74
2021/05/25 07:17:23;;;;;;;1.98;0.68;;;11.40;99.90;;;;;;5054252;28;20029;-74
2021/05/25 07:19:48;;;;;;;1.88;0.50;;;11.60;99.90;;;;;;5036227;28;20433;-74
2021/05/25 07:22:14;;;;;;;1.23;0.52;;;11.60;99.90;;;;;;5054707;28;20028;-74
2021/05/25 07:24:40;;;;;;;4.03;0.40;;;11.60;99.90;;;;;;5037094;28;20467;-78
2021/05/25 07:27:06;;;;;;;3.55;0.43;;;11.70;99.90;;;;;;5057571;28;20023;-78
2021/05/25 07:29:31;;;;;;;3.40;0.68;;;11.70;99.90;;;;;;5055949;28;20029;-75
2021/05/25 07:31:57;;;;;;;3.00;1.20;;;11.80;99.90;;;;;;5053684;28;20390;-73
2021/05/25 07:34:23;;;;;;;3.50;0.82;;;11.90;99.90;;;;;;5038710;28;20390;-77
2021/05/25 07:36:48;;;;;;;3.85;0.63;;;12.00;99.90;;;;;;5054577;28;20371;-74
2021/05/25 07:39:15;;;;;;;4.70;0.63;;;12.20;99.90;;;;;;5053706;28;20037;-74
2021/05/25 07:41:41;;;;;;;8.73;0.45;;;12.50;99.90;;;;;;5035600;28;20089;-74
2021/05/25 07:44:07;;;;;;;1.40;0.30;;;12.80;99.90;;;;;;5054152;28;20043;-74
2021/05/25 07:46:33;;;;;;;3.28;0.52;;;13.30;99.90;;;;;;5055728;28;20055;-77
2021/05/25 07:48:59;;;;;;;2.55;0.28;;;13.50;99.90;;;;;;5054606;28;20492;-73
2021/05/25 07:51:25;;;;;;;4.55;0.22;;;13.60;99.90;;;;;;5053790;28;20024;-74
2021/05/25 07:53:51;;;;;;;2.50;0.60;;;13.60;99.90;;;;;;5056334;28;20029;-77
2021/05/25 07:56:17;;;;;;;1.77;0.25;;;13.40;99.90;;;;;;5035774;28;20035;-75
2021/05/25 07:58:43;;;;;;;5.15;0.63;;;13.10;99.90;;;;;;5054194;28;20021;-75
2021/05/25 08:01:09;;;;;;;1.75;0.73;;;13.00;99.90;;;;;;5053659;28;20100;-76
2021/05/25 08:03:35;;;;;;;3.65;0.40;;;12.90;99.90;;;;;;5035996;28;20071;-75
2021/05/25 08:06:00;;;;;;;3.10;0.32;;;12.80;99.90;;;;;;5053813;28;20355;-75
2021/05/25 08:08:27;;;;;;;2.33;0.10;;;12.80;99.90;;;;;;5036135;28;20021;-74
2021/05/25 08:10:53;;;;;;;5.05;0.57;;;12.70;99.90;;;;;;5053562;28;20017;-73
2021/05/25 08:13:20;;;;;;;1.65;0.20;;;12.90;99.90;;;;;;5053709;28;20065;-73
2021/05/25 08:15:46;;;;;;;0.90;0.10;;;13.20;99.90;;;;;;5053568;28;20135;-73
2021/05/25 08:20:56;;;;;;;3.10;0.20;;;13.00;99.90;;;;;;5055412;28;20405;-73
2021/05/25 08:23:21;;;;;;;2.15;0.00;;;12.60;99.90;;;;;;5053652;28;20033;-74
2021/05/25 08:25:47;;;;;;;3.83;0.10;;;12.20;99.90;;;;;;5053721;28;20041;-74
2021/05/25 08:28:13;;;;;;;4.38;0.43;;;12.00;99.90;;;;;;5035509;28;20074;-74
2021/05/25 08:30:41;;;;;;;3.85;0.13;;;11.90;99.90;;;;;;5053619;28;20025;-73
2021/05/25 08:33:08;;;;;;;4.40;0.17;;;11.80;99.90;;;;;;5036033;28;20043;-74
2021/05/25 08:35:37;;;;;;;4.18;0.65;;;11.70;99.90;;;;;;5055336;28;20389;-77
2021/05/25 08:38:04;;;;;;;7.18;0.45;;;11.80;99.90;;;;;;5057098;28;20500;-77
2021/05/25 08:40:33;;;;;;;9.25;0.20;;;11.90;99.90;;;;;;5057152;28;20497;-78
2021/05/25 08:43:00;;;;;;;3.92;0.00;;;12.30;99.90;;;;;;5056714;28;20163;-77
2021/05/25 08:45:26;;;;;;;4.90;0.15;;;12.50;99.90;;;;;;5055241;28;20032;-75
2021/05/25 08:47:54;;;;;;;4.38;0.22;;;12.50;99.90;;;;;;5049496;23;20063;-74
2021/05/25 08:50:27;;;;;;;4.07;0.38;;;12.50;99.90;;;;;;5053187;28;20526;-74
2021/05/25 08:52:53;;;;;;;3.63;0.73;;;13.20;99.90;;;;;;5053227;28;20020;-74
2021/05/25 08:55:21;;;;;;;2.85;1.00;;;12.40;99.90;;;;;;5054062;28;20033;-77
2021/05/25 08:57:47;;;;;;;4.97;0.73;;;12.50;99.90;;;;;;5053996;28;20021;-75
2021/05/25 09:00:13;;;;;;;7.38;0.45;;;12.60;99.90;;;;;;5036803;28;20092;-79
2021/05/25 09:02:39;;;;;;;5.25;1.13;;;12.90;99.90;;;;;;5054584;28;20017;-76
2021/05/25 09:05:19;;;;;;;4.55;0.10;;;13.40;99.90;;;;;;5035517;28;20531;-75
2021/05/25 09:07:52;;;;;;;3.97;0.68;;;14.00;99.90;;;;;;5035302;28;20453;-74
2021/05/25 09:10:43;;;;;;;3.33;0.40;;;14.20;99.90;;;;;;5035380;28;20040;-77
2021/05/25 09:13:20;;;;;;;2.08;0.30;;;14.20;99.90;;;;;;5035123;28;20071;-76
2021/05/25 09:15:51;;;;;;;2.38;0.28;;;14.00;99.90;;;;;;5035011;28;20044;-75
2021/05/25 09:18:23;;;;;;;1.95;0.03;;;13.60;99.90;;;;;;5052856;28;20114;-74
2021/05/25 09:20:57;;;;;;;5.60;0.10;;;13.30;99.90;;;;;;5035948;28;20087;-78
2021/05/25 09:23:32;;;;;;;8.73;0.60;;;13.20;99.90;;;;;;5039389;28;20397;-79
2021/05/25 09:26:05;;;;;;;4.03;0.50;;;13.20;99.90;;;;;;5054939;28;20029;-77
2021/05/25 09:28:32;;;;;;;0.98;0.10;;;13.20;99.90;;;;;;5038786;28;20029;-76
2021/05/25 09:30:58;;;;;;;2.08;0.30;;;13.10;99.90;;;;;;5056428;28;20025;-77
2021/05/25 09:33:24;;;;;;;3.03;0.30;;;13.10;99.90;;;;;;5045882;28;20067;-78
2021/05/25 09:35:50;;;;;;;4.43;0.30;;;13.20;99.90;;;;;;5046308;28;20021;-78
2021/05/25 09:38:28;;;;;;;4.57;0.13;;;13.10;99.90;;;;;;5063863;28;20013;-79
2021/05/25 09:40:59;;;;;;;4.18;0.10;;;13.10;99.90;;;;;;5059874;28;20025;-77
2021/05/25 09:43:27;;;;;;;4.65;0.85;;;13.20;99.90;;;;;;5057972;28;20466;-76
2021/05/25 09:45:54;;;;;;;3.83;0.25;;;13.20;99.90;;;;;;5056699;28;20170;-75
2021/05/25 09:48:19;;;;;;;0.68;0.10;;;13.40;99.90;;;;;;5056062;28;20033;-74
2021/05/25 09:50:45;;;;;;;3.92;0.57;;;13.70;99.90;;;;;;5038139;28;20481;-74
2021/05/25 09:53:12;;;;;;;2.88;0.50;;;13.80;99.90;;;;;;5056674;28;20021;-75
2021/05/25 09:55:59;;;;;;;2.90;0.30;;;13.90;99.90;;;;;;5055998;28;20020;-75
2021/05/25 09:58:34;;;;;;;3.15;0.35;;;14.40;99.90;;;;;;5056151;28;20025;-76
2021/05/25 10:01:05;;;;;;;5.78;0.08;;;14.60;99.90;;;;;;5055980;28;20021;-74
2021/05/25 10:03:34;;;;;;;9.30;0.65;;;14.80;99.90;;;;;;5055933;28;20036;-74
2021/05/25 10:06:01;;;;;;;4.35;0.13;;;14.70;99.90;;;;;;5037792;28;20029;-74
2021/05/25 10:08:27;;;;;;;2.67;0.15;;;14.90;99.90;;;;;;5037596;28;20584;-74
2021/05/25 10:10:55;;;;;;;3.10;0.10;;;15.20;99.90;;;;;;5056043;28;20057;-74
2021/05/25 10:13:22;;;;;;;2.92;0.20;;;15.40;99.90;;;;;;5055537;28;20033;-74
2021/05/25 10:15:52;;;;;;;2.05;0.10;;;15.40;99.90;;;;;;5037476;28;20025;-75
2021/05/25 10:21:14;;;;;;;2.75;0.35;;;15.70;93.10;;;;;;5045180;28;20064;-74
2021/05/25 10:23:43;;;;;;;2.40;0.15;;;15.80;99.80;;;;;;5055423;28;20028;-74
2021/05/25 10:26:11;;;;;;;2.50;0.35;;;16.00;95.60;;;;;;5037485;28;20027;-74
2021/05/25 10:28:40;;;;;;;2.35;0.55;;;16.20;94.90;;;;;;5055263;28;20025;-74
2021/05/25 10:31:24;;;;;;;;;;;16.20;96.80;;;;;;5056273;28;20533;-74
2021/05/25 10:34:23;;;;;;;2.75;0.30;;;16.50;92.50;;;;;;5037632;28;19909;-74
2021/05/25 10:36:49;;;;;;;;;;;16.40;94.90;;;;;;5036739;28;20155;-75
2021/05/25 10:39:37;;;;;;;1.85;0.00;;;16.30;91.60;;;;;;5055625;28;20335;-75
2021/05/25 10:42:26;;;;;;;6.75;0.08;;;16.60;92.20;;;;;;5037201;28;20021;-74
2021/05/25 10:44:54;;;;;;;1.38;0.00;;;16.60;93.00;;;;;;5055222;28;20033;-75
2021/05/25 10:47:29;;;;;;;3.93;0.30;;;16.60;84.80;;;;;;5055198;28;20060;-76
2021/05/25 10:50:16;;;;;;;3.45;0.00;;;16.50;90.40;;;;;;5054947;28;20029;-76
2021/05/25 10:53:00;;;;;;;2.13;0.00;;;16.30;91.80;;;;;;5055847;28;20482;-75
2021/05/25 10:55:35;;;;;;;2.70;0.15;;;16.30;90.20;;;;;;5040346;28;20021;-74
2021/05/25 10:58:31;;;;;;;2.90;0.47;;;16.20;82.60;;;;;;5037873;28;20028;-78
2021/05/25 11:00:59;;;;;;;6.68;0.10;;;16.30;87.10;;;;;;5057137;28;20371;-75
2021/05/25 11:03:25;;;;;;;4.68;0.75;;;16.40;89.60;;;;;;5058235;28;20028;-76
2021/05/25 11:06:02;;;;;;;1.05;0.00;;;16.60;84.50;;;;;;5037330;28;20498;-77
2021/05/25 11:08:39;;;;;;;8.73;0.35;;;16.70;78.70;;;;;;5050008;23;20052;-74
2021/05/25 11:11:13;;;;;;;5.57;0.00;;;16.70;83.50;;;;;;5055290;28;20531;-74
2021/05/25 11:13:40;;;;;;;1.63;0.00;;;16.90;77.60;;;;;;5055447;28;20474;-77
2021/05/25 11:18:58;;;;;;;3.47;0.00;;;16.30;78.00;;;;;;5067693;22;20065;-73
2021/05/25 11:21:49;;;;;;;0.90;0.00;;;16.40;88.30;;;;;;5054834;28;20033;-73
2021/05/25 11:24:42;;;;;;;0.00;0.00;;;16.20;82.30;;;;;;5054722;28;20025;-73
2021/05/25 11:27:11;;;;;;;4.00;0.32;;;16.30;85.80;;;;;;5054404;28;20032;-77
2021/05/25 11:29:52;;;;;;;7.13;0.10;;;16.30;90.30;;;;;;5036805;28;20032;-77
2021/05/25 11:32:23;;;;;;;1.90;0.13;;;16.30;86.10;;;;;;5039781;28;20052;-77
2021/05/25 11:34:59;;;;;;;1.55;0.00;;;16.50;85.50;;;;;;5039888;28;20025;-78
2021/05/25 11:37:26;;;;;;;1.38;0.03;;;16.70;81.90;;;;;;5053886;28;20028;-74
2021/05/25 11:39:53;;;;;;;0.00;0.00;;;16.60;84.10;;;;;;5053902;28;20116;-74
2021/05/25 11:42:31;;;;;;;1.85;0.00;;;16.60;68.90;;;;;;5036753;28;20429;-73
2021/05/25 11:44:58;;;;;;;1.63;0.00;;;16.20;68.70;;;;;;5054026;28;20033;-74
2021/05/25 11:47:24;;;;;;;2.90;0.00;;;15.80;69.30;;;;;;5055541;28;20036;-75
2021/05/25 11:49:50;;;;;;;0.60;0.00;;;15.30;71.30;;;;;;5035819;28;20440;-76
2021/05/25 11:52:22;;;;;;;0.98;0.05;;;15.10;80.00;;;;;;5053984;28;20041;-73
2021/05/25 11:54:50;;;;;;;0.90;0.00;;;14.90;76.70;;;;;;5035641;28;20025;-73
2021/05/25 11:57:26;;;;;;;6.30;0.13;;;15.00;82.90;;;;;;5053665;28;20013;-74
2021/05/25 11:59:52;;;;;;;1.38;0.00;;;15.00;83.40;;;;;;5054459;28;20079;-74
2021/05/25 12:02:29;;;;;;;0.75;0.00;;;15.10;85.20;;;;;;5053428;28;20025;-73
2021/05/25 12:05:04;;;;;;;0.30;0.00;;;14.70;81.00;;;;;;5053533;28;20047;-75
2021/05/25 12:07:30;;;;;;;1.52;0.17;;;14.60;86.30;;;;;;5037405;28;20036;-77
2021/05/25 12:09:59;;;;;;;0.90;0.00;;;14.30;79.00;;;;;;5036005;28;20025;-76
2021/05/25 12:12:26;;;;;;;0.10;0.00;;;14.30;81.30;;;;;;5037884;28;20037;-77
2021/05/25 12:14:53;;;;;;;2.80;0.00;;;14.20;80.30;;;;;;5038183;28;20020;-77
2021/05/25 12:17:23;;;;;;;0.08;0.00;;;14.00;86.90;;;;;;5035831;28;20017;-73
2021/05/25 12:19:57;;;;;;;0.55;0.00;;;14.00;90.50;;;;;;5053713;28;20079;-75
2021/05/25 12:22:40;;;;;;;1.05;0.00;;;13.80;89.60;;;;;;5053738;28;20021;-74
2021/05/25 12:25:20;;;;;;;0.65;0.00;;;13.70;94.20;;;;;;5053258;28;20033;-75
2021/05/25 12:27:48;;;;;;;0.32;0.00;;;13.60;93.60;;;;;;5053625;28;20025;-74
2021/05/25 12:30:16;;;;;;;3.22;0.22;;;13.80;93.20;;;;;;5053807;28;20069;-73
2021/05/25 12:32:46;;;;;;;1.95;0.10;;;13.80;93.80;;;;;;5053827;28;20052;-73
2021/05/25 12:35:13;;;;;;;1.85;0.00;;;13.80;92.30;;;;;;5053239;28;20021;-77
2021/05/25 12:37:41;;;;;;;0.57;0.00;;;13.80;90.90;;;;;;5037054;28;20120;-74
2021/05/25 12:40:12;;;;;;;1.90;0.53;;;13.90;92.20;;;;;;5055965;28;20440;-76
2021/05/25 12:42:41;;;;;;;1.73;0.00;;;13.60;92.10;;;;;;5053682;28;20040;-75
2021/05/25 12:45:14;;;;;;;0.38;0.00;;;13.50;92.10;;;;;;5053224;28;20029;-75
2021/05/25 12:47:54;;;;;;;0.35;0.00;;;13.60;93.40;;;;;;5053528;28;20025;-75
2021/05/25 12:50:24;;;;;;;1.02;0.00;;;13.90;94.10;;;;;;5053035;28;20025;-75
2021/05/25 12:53:02;;;;;;;1.50;0.10;;;14.30;92.60;;;;;;5053048;28;20025;-75
2021/05/25 12:55:27;;;;;;;0.22;0.03;;;14.80;91.00;;;;;;5035106;28;20032;-75
2021/05/25 12:57:54;;;;;;;1.30;0.20;;;15.00;88.60;;;;;;5053749;28;20445;-73
2021/05/25 13:00:30;;;;;;;1.55;0.10;;;14.90;87.60;;;;;;5054201;28;20027;-73
2021/05/25 13:02:57;;;;;;;3.55;0.00;;;14.60;87.50;;;;;;5057220;28;20490;-77
2021/05/25 13:05:29;;;;;;;0.10;0.00;;;14.40;90.00;;;;;;5056885;28;20092;-75
2021/05/25 13:08:10;;;;;;;0.00;0.00;;;14.30;92.30;;;;;;5038897;28;20017;-75